Time;durP1;ratioP1;P1;durP2;ratioP2;P2;SDS_P1;SDS_P2;PMS_P1;PMS_P2;Temp;Humidity;BMP_temperature;BMP_pressure;BME280_temperature;BME280_humidity;BME280_pressure;Samples;Min_cycle;Max_cycle;Signal;HPM_P1;HPM_P2
2021/12/14 00:00:39;;;;;;;16.38;9.45;;;8.20;99.90;;;;;;6217580;23;20058;-76
2021/12/14 00:03:06;;;;;;;15.88;9.57;;;8.10;99.90;;;;;;6217893;23;20340;-76
2021/12/14 00:05:32;;;;;;;16.02;9.82;;;8.10;99.90;;;;;;6218205;23;20020;-76
2021/12/14 00:08:01;;;;;;;16.08;10.10;;;8.10;99.90;;;;;;6217531;23;20066;-76
2021/12/14 00:10:48;;;;;;;17.88;10.20;;;8.20;99.90;;;;;;6217733;23;20024;-76
2021/12/14 00:13:29;;;;;;;18.10;10.00;;;8.20;99.90;;;;;;6217728;23;20458;-76
2021/12/14 00:15:57;;;;;;;19.85;10.43;;;8.20;99.90;;;;;;6244156;23;20448;-75
2021/12/14 00:18:25;;;;;;;14.18;8.57;;;8.20;99.90;;;;;;6243988;23;20023;-75
2021/12/14 00:20:56;;;;;;;14.85;9.45;;;8.20;99.90;;;;;;6218152;23;20352;-75
2021/12/14 00:26:11;;;;;;;13.95;9.20;;;8.20;99.90;;;;;;6244448;23;20456;-75
2021/12/14 00:28:37;;;;;;;17.90;9.63;;;8.20;99.90;;;;;;6243823;23;20016;-75
2021/12/14 00:31:04;;;;;;;;;;;8.10;99.90;;;;;;6217967;23;20016;-75
2021/12/14 00:33:34;;;;;;;16.30;9.95;;;8.20;99.90;;;;;;6218031;23;20258;-75
2021/12/14 00:36:03;;;;;;;15.63;9.20;;;8.10;99.90;;;;;;6217180;23;20024;-75
2021/12/14 00:38:29;;;;;;;16.45;9.93;;;8.10;99.90;;;;;;6217485;23;20050;-75
2021/12/14 00:40:57;;;;;;;;;;;8.10;99.90;;;;;;6245575;23;20012;-75
2021/12/14 00:43:23;;;;;;;16.67;9.48;;;8.20;99.90;;;;;;6243569;23;19969;-75
2021/12/14 00:45:48;;;;;;;;;;;8.20;99.90;;;;;;6245167;23;20090;-75
2021/12/14 00:48:14;;;;;;;15.48;9.40;;;8.10;99.90;;;;;;6217212;23;19915;-75
2021/12/14 00:50:55;;;;;;;14.38;9.27;;;8.20;99.90;;;;;;6224609;22;20020;-75
2021/12/14 00:53:21;;;;;;;15.15;9.65;;;8.00;99.90;;;;;;6247567;22;20020;-75
2021/12/14 00:55:57;;;;;;;16.63;9.98;;;8.10;99.90;;;;;;6247719;22;20015;-75
2021/12/14 00:58:23;;;;;;;17.05;9.75;;;8.10;99.90;;;;;;6246847;22;20012;-75
2021/12/14 01:00:56;;;;;;;17.73;9.93;;;8.10;99.90;;;;;;6248330;22;20019;-75
2021/12/14 01:03:23;;;;;;;18.98;10.23;;;8.00;99.90;;;;;;6247586;22;20008;-75
2021/12/14 01:05:54;;;;;;;18.25;10.57;;;8.00;99.90;;;;;;6247305;22;20026;-75
2021/12/14 01:08:24;;;;;;;17.90;11.32;;;8.00;99.90;;;;;;6248013;22;20025;-75
2021/12/14 01:11:02;;;;;;;17.50;11.13;;;8.00;99.90;;;;;;6274766;22;20119;-75
2021/12/14 01:13:30;;;;;;;16.52;10.63;;;8.00;99.90;;;;;;6248151;22;20007;-75
2021/12/14 01:16:32;;;;;;;18.13;10.65;;;8.00;99.90;;;;;;6275393;22;20451;-75
2021/12/14 01:19:14;;;;;;;16.65;10.15;;;8.00;99.90;;;;;;6247157;22;20020;-75
2021/12/14 01:22:02;;;;;;;16.60;10.57;;;8.00;99.90;;;;;;6275430;22;20015;-75
2021/12/14 01:27:11;;;;;;;17.80;10.63;;;7.90;99.90;;;;;;6274963;22;20098;-74
2021/12/14 01:29:38;;;;;;;18.10;11.50;;;7.90;99.90;;;;;;6248067;22;20012;-74
2021/12/14 01:32:05;;;;;;;18.52;10.90;;;7.90;99.90;;;;;;6247237;22;20007;-74
2021/12/14 01:34:32;;;;;;;18.13;11.77;;;7.90;99.90;;;;;;6247767;22;20012;-74
2021/12/14 01:37:03;;;;;;;16.73;10.45;;;7.90;99.90;;;;;;6247591;22;20057;-75
2021/12/14 01:42:07;;;;;;;17.30;11.35;;;7.90;99.90;;;;;;6249930;22;20022;-76
2021/12/14 01:45:18;;;;;;;20.27;10.85;;;7.90;99.90;;;;;;6215220;23;20021;-75
2021/12/14 01:47:55;;;;;;;20.95;11.32;;;7.10;99.90;;;;;;6132410;23;20028;-75
2021/12/14 01:50:39;;;;;;;19.50;11.13;;;7.90;99.90;;;;;;6178480;23;20012;-75
2021/12/14 01:53:05;;;;;;;16.73;10.85;;;7.90;99.90;;;;;;6188250;23;20096;-75
2021/12/14 01:55:33;;;;;;;;;;;7.90;99.90;;;;;;6189921;23;20028;-75
2021/12/14 01:58:07;;;;;;;18.05;11.38;;;7.80;99.90;;;;;;6189431;23;19919;-75
2021/12/14 02:00:41;;;;;;;21.98;11.93;;;7.90;99.90;;;;;;6187930;23;20022;-75
2021/12/14 02:03:11;;;;;;;17.90;10.55;;;7.90;99.90;;;;;;6215272;23;20054;-75
2021/12/14 02:05:42;;;;;;;21.90;11.20;;;7.90;99.90;;;;;;6215997;23;20044;-75
2021/12/14 02:08:28;;;;;;;18.50;11.48;;;7.90;99.90;;;;;;6215404;23;20035;-75
2021/12/14 02:10:56;;;;;;;19.20;12.00;;;7.90;99.90;;;;;;6188939;23;20017;-75
2021/12/14 02:13:30;;;;;;;20.25;11.55;;;8.00;99.90;;;;;;6213244;23;20491;-75
2021/12/14 02:15:57;;;;;;;19.65;11.45;;;8.00;99.90;;;;;;6188483;23;20012;-74
2021/12/14 02:18:25;;;;;;;20.13;12.00;;;8.00;99.90;;;;;;6214823;23;20091;-74
2021/12/14 02:20:58;;;;;;;19.45;11.23;;;8.00;99.90;;;;;;6215655;23;20095;-74
2021/12/14 02:23:24;;;;;;;19.15;11.98;;;8.00;99.90;;;;;;6188403;23;20088;-74
2021/12/14 02:26:00;;;;;;;21.85;11.60;;;8.10;99.90;;;;;;6215539;23;20028;-74
2021/12/14 02:28:26;;;;;;;18.15;11.23;;;8.10;99.90;;;;;;6187937;23;20143;-74
2021/12/14 02:30:55;;;;;;;21.10;11.65;;;8.10;99.90;;;;;;6215024;23;20333;-74
2021/12/14 02:33:44;;;;;;;21.75;11.75;;;8.10;99.90;;;;;;6214841;23;20433;-74
2021/12/14 02:36:17;;;;;;;20.27;11.20;;;8.00;99.90;;;;;;6215100;23;20013;-74
2021/12/14 02:38:45;;;;;;;20.80;11.50;;;8.00;99.90;;;;;;6188624;23;20028;-74
2021/12/14 02:41:12;;;;;;;18.95;12.02;;;7.90;99.90;;;;;;6188100;23;20016;-74
2021/12/14 02:43:46;;;;;;;22.10;12.23;;;8.00;99.90;;;;;;6187818;23;20140;-74
2021/12/14 02:46:14;;;;;;;24.52;13.02;;;7.90;99.90;;;;;;6188641;23;20031;-75
2021/12/14 02:48:45;;;;;;;20.48;12.35;;;8.00;99.90;;;;;;6215228;23;20016;-74
2021/12/14 02:51:18;;;;;;;24.73;12.80;;;8.00;99.90;;;;;;6187579;23;20021;-75
2021/12/14 02:53:47;;;;;;;23.90;11.90;;;8.00;99.90;;;;;;6215526;23;20016;-75
2021/12/14 02:56:15;;;;;;;24.17;12.90;;;8.00;99.90;;;;;;6214159;23;20035;-75
2021/12/14 02:58:45;;;;;;;25.08;12.57;;;8.00;99.90;;;;;;6187589;23;20016;-75
2021/12/14 03:01:16;;;;;;;21.60;12.68;;;8.50;99.90;;;;;;6214128;23;20052;-75
2021/12/14 03:03:42;;;;;;;23.80;12.23;;;8.10;99.90;;;;;;6214049;23;20008;-75
2021/12/14 03:06:10;;;;;;;22.63;12.32;;;8.20;99.90;;;;;;6188102;23;20028;-75
2021/12/14 03:08:44;;;;;;;22.08;13.45;;;8.10;99.90;;;;;;6186458;23;20027;-75
2021/12/14 03:11:12;;;;;;;25.60;12.93;;;8.10;99.90;;;;;;6184444;23;20016;-75
2021/12/14 03:13:40;;;;;;;23.67;12.55;;;8.10;99.90;;;;;;6186231;23;20024;-75
2021/12/14 03:16:13;;;;;;;25.33;11.73;;;8.10;99.90;;;;;;6188319;23;20048;-75
2021/12/14 03:18:42;;;;;;;24.27;12.75;;;8.10;99.90;;;;;;6185962;23;20027;-75
2021/12/14 03:21:12;;;;;;;26.60;14.00;;;8.20;99.90;;;;;;6184766;23;20341;-75
2021/12/14 03:23:43;;;;;;;24.33;13.23;;;8.20;99.90;;;;;;6212865;23;20047;-75
2021/12/14 03:26:10;;;;;;;27.67;13.00;;;8.10;99.90;;;;;;6212087;23;20017;-75
2021/12/14 03:28:39;;;;;;;23.92;12.40;;;8.10;99.90;;;;;;6212313;23;20615;-75
2021/12/14 03:31:21;;;;;;;25.40;13.32;;;8.10;99.90;;;;;;6212811;23;20017;-75
2021/12/14 03:33:53;;;;;;;27.15;13.45;;;8.10;99.90;;;;;;6213070;23;20020;-75
2021/12/14 03:36:26;;;;;;;26.15;14.02;;;8.10;99.90;;;;;;6187078;23;20020;-74
2021/12/14 03:39:15;;;;;;;25.25;13.60;;;8.10;99.90;;;;;;6214262;23;20076;-74
2021/12/14 03:41:49;;;;;;;26.58;14.02;;;8.10;99.90;;;;;;6187788;23;20021;-74
2021/12/14 03:44:20;;;;;;;31.48;13.20;;;8.10;99.90;;;;;;6187595;23;20091;-75
2021/12/14 03:46:58;;;;;;;25.40;13.63;;;8.10;99.90;;;;;;6187199;23;20083;-74
2021/12/14 03:49:28;;;;;;;28.75;14.82;;;8.10;99.90;;;;;;6187738;23;20508;-75
2021/12/14 03:51:55;;;;;;;27.40;14.30;;;8.00;99.90;;;;;;6187832;23;20023;-74
2021/12/14 03:54:23;;;;;;;24.30;14.07;;;8.00;99.90;;;;;;6187249;23;20064;-75
2021/12/14 03:56:54;;;;;;;28.42;14.43;;;8.00;99.90;;;;;;6187901;23;20032;-74
2021/12/14 03:59:21;;;;;;;29.40;15.48;;;8.00;99.90;;;;;;6187192;23;20171;-74
2021/12/14 04:01:50;;;;;;;26.13;14.35;;;7.90;99.90;;;;;;6187746;23;20020;-74
2021/12/14 04:04:27;;;;;;;24.83;13.45;;;7.90;99.90;;;;;;6187450;23;20024;-75
2021/12/14 04:06:58;;;;;;;27.20;15.20;;;7.90;99.90;;;;;;6187615;23;20437;-75
2021/12/14 04:09:27;;;;;;;25.23;13.95;;;8.00;99.90;;;;;;6187576;23;20021;-75
2021/12/14 04:11:53;;;;;;;28.75;15.23;;;7.90;99.90;;;;;;6187924;23;20013;-75
2021/12/14 04:14:20;;;;;;;25.20;13.68;;;8.00;99.90;;;;;;6187172;23;20021;-75
2021/12/14 04:16:49;;;;;;;26.52;13.90;;;7.90;99.90;;;;;;6187668;23;20314;-74
2021/12/14 04:19:22;;;;;;;26.50;14.45;;;7.90;99.90;;;;;;6187651;23;20066;-74
2021/12/14 04:21:49;;;;;;;28.02;14.00;;;7.90;99.90;;;;;;6186939;23;20024;-74
2021/12/14 04:24:22;;;;;;;25.48;13.75;;;8.00;99.90;;;;;;6188005;23;20333;-74
2021/12/14 04:26:49;;;;;;;26.35;13.95;;;8.00;99.90;;;;;;6188445;23;20078;-74
2021/12/14 04:29:15;;;;;;;23.45;13.20;;;8.00;99.90;;;;;;6187021;23;20016;-74
2021/12/14 04:31:44;;;;;;;25.23;13.93;;;8.00;99.90;;;;;;6212978;23;20027;-74
2021/12/14 04:34:14;;;;;;;27.40;13.63;;;8.00;99.90;;;;;;6187491;23;20016;-74
2021/12/14 04:36:42;;;;;;;26.17;13.82;;;8.00;99.90;;;;;;6186903;23;20021;-74
2021/12/14 04:53:15;;;;;;;25.20;13.35;;;8.10;99.90;;;;;;6213062;23;20341;-74
2021/12/14 04:55:43;;;;;;;28.17;14.30;;;8.10;99.90;;;;;;6186883;23;20030;-75
2021/12/14 04:58:10;;;;;;;26.92;13.90;;;8.10;99.90;;;;;;6187469;23;20464;-74
2021/12/14 05:00:47;;;;;;;27.77;14.40;;;8.00;99.90;;;;;;6187487;23;20475;-75
2021/12/14 05:03:20;;;;;;;26.50;14.40;;;8.00;99.90;;;;;;6186313;23;20012;-75
2021/12/14 05:05:49;;;;;;;27.00;14.07;;;8.10;99.90;;;;;;6212796;23;20024;-75
2021/12/14 05:11:08;;;;;;;26.02;13.77;;;8.00;99.90;;;;;;6186619;23;20456;-75
2021/12/14 05:13:40;;;;;;;28.88;14.30;;;8.00;99.90;;;;;;6187165;23;20044;-74
2021/12/14 05:16:07;;;;;;;26.45;14.20;;;8.00;99.90;;;;;;6189746;23;20044;-74
2021/12/14 05:18:33;;;;;;;26.60;14.70;;;8.10;99.90;;;;;;6185048;23;20029;-74
2021/12/14 05:20:59;;;;;;;;;;;8.00;99.90;;;;;;6186888;23;20156;-75
2021/12/14 05:23:34;;;;;;;27.70;14.13;;;8.00;99.90;;;;;;6187782;23;19919;-74
2021/12/14 05:28:47;;;;;;;27.90;14.05;;;8.00;99.90;;;;;;6167708;23;20607;-75
2021/12/14 05:31:16;;;;;;;35.67;15.00;;;8.00;99.90;;;;;;6187605;23;20016;-76
2021/12/14 05:33:43;;;;;;;30.15;15.27;;;8.00;99.90;;;;;;6189145;23;20021;-84
2021/12/14 05:36:16;;;;;;;27.77;15.00;;;8.00;99.90;;;;;;6188591;23;20103;-77
2021/12/14 05:43:59;;;;;;;26.60;13.98;;;7.90;99.90;;;;;;6214000;23;20444;-77
2021/12/14 05:46:26;;;;;;;24.83;14.57;;;7.90;99.90;;;;;;6187407;23;20032;-76
2021/12/14 05:49:08;;;;;;;29.55;14.55;;;8.00;99.90;;;;;;6188681;23;20098;-77
2021/12/14 05:51:35;;;;;;;24.98;14.02;;;7.90;99.90;;;;;;6188456;23;20056;-77
2021/12/14 05:54:00;;;;;;;30.38;14.35;;;7.90;99.90;;;;;;6187602;23;20048;-82
2021/12/14 05:56:28;;;;;;;;;;;8.00;99.90;;;;;;6188300;23;20453;-80
2021/12/14 05:58:55;;;;;;;28.17;14.00;;;8.00;99.90;;;;;;6187741;23;19970;-78
2021/12/14 06:01:24;;;;;;;27.33;14.88;;;7.90;99.90;;;;;;6187572;23;20468;-77
2021/12/14 06:04:00;;;;;;;27.40;14.45;;;7.90;99.90;;;;;;6188547;23;20059;-80
2021/12/14 06:06:32;;;;;;;27.65;14.52;;;8.00;99.90;;;;;;6186328;23;20016;-77
2021/12/14 06:09:15;;;;;;;25.13;13.23;;;8.00;99.90;;;;;;6187475;23;20103;-79
2021/12/14 06:11:43;;;;;;;24.02;12.85;;;8.00;99.90;;;;;;6186866;23;20071;-77
2021/12/14 06:14:20;;;;;;;29.95;14.52;;;8.00;99.90;;;;;;6187193;23;20088;-77
2021/12/14 06:16:49;;;;;;;27.77;13.52;;;7.90;99.90;;;;;;6188005;23;20459;-77
2021/12/14 06:19:22;;;;;;;34.03;15.27;;;7.90;99.90;;;;;;6212109;23;20017;-76
2021/12/14 06:22:25;;;;;;;27.00;13.93;;;7.90;99.90;;;;;;6184800;23;20044;-73
2021/12/14 06:25:04;;;;;;;30.65;14.82;;;7.90;99.90;;;;;;6188617;23;20074;-78
2021/12/14 06:27:31;;;;;;;31.38;14.65;;;7.90;99.90;;;;;;6186622;23;20040;-78
2021/12/14 06:30:07;;;;;;;29.38;15.13;;;7.90;99.90;;;;;;6187871;23;20020;-80
2021/12/14 06:32:38;;;;;;;25.73;13.88;;;7.90;99.90;;;;;;6187151;23;20056;-77
2021/12/14 06:35:11;;;;;;;27.80;14.93;;;7.90;99.90;;;;;;6186389;23;20095;-78
2021/12/14 06:41:09;;;;;;;28.65;14.18;;;7.90;99.90;;;;;;6197848;23;20028;-78
2021/12/14 06:43:55;;;;;;;29.58;14.55;;;9.00;99.90;;;;;;6097644;23;20076;-78
2021/12/14 06:46:24;;;;;;;27.23;15.52;;;7.80;99.90;;;;;;6098063;23;20033;-79
2021/12/14 06:48:53;;;;;;;30.25;15.20;;;7.80;99.90;;;;;;6168859;23;20013;-78
2021/12/14 06:51:31;;;;;;;32.22;16.33;;;7.90;99.90;;;;;;6187715;23;20036;-78
2021/12/14 06:54:02;;;;;;;33.88;16.55;;;7.90;99.90;;;;;;6188711;23;20012;-81
2021/12/14 07:02:44;;;;;;;31.33;15.20;;;7.90;99.90;;;;;;6243080;22;20516;-82
2021/12/14 07:05:26;;;;;;;29.48;15.43;;;8.30;99.90;;;;;;6241890;23;20016;-83
2021/12/14 07:07:51;;;;;;;30.25;14.77;;;7.90;99.90;;;;;;6217694;23;20086;-78
2021/12/14 07:10:29;;;;;;;;;;;8.00;99.90;;;;;;6218100;23;20051;-79
2021/12/14 07:12:55;;;;;;;25.80;14.32;;;8.00;99.90;;;;;;6217429;23;19912;-76
2021/12/14 07:15:24;;;;;;;;;;;8.00;99.90;;;;;;6218698;23;20100;-76
2021/12/14 07:18:04;;;;;;;27.10;13.57;;;7.90;99.90;;;;;;6244857;23;20308;-75
2021/12/14 07:20:50;;;;;;;30.80;15.63;;;8.00;99.90;;;;;;6218467;23;20023;-75
2021/12/14 07:23:36;;;;;;;34.58;16.08;;;8.00;99.90;;;;;;6216409;23;20066;-76
2021/12/14 07:26:07;;;;;;;28.67;14.18;;;8.10;99.90;;;;;;6218044;23;20066;-76
2021/12/14 07:28:44;;;;;;;30.77;15.00;;;8.00;99.90;;;;;;6218310;23;20027;-76
2021/12/14 07:31:22;;;;;;;29.73;14.98;;;8.00;99.90;;;;;;6242889;23;20523;-75
2021/12/14 07:33:55;;;;;;;29.63;14.23;;;8.00;99.90;;;;;;6218565;23;20090;-76
2021/12/14 07:36:40;;;;;;;29.20;14.85;;;8.00;99.90;;;;;;6244000;23;20055;-75
2021/12/14 07:39:14;;;;;;;29.83;14.73;;;8.10;99.90;;;;;;6215907;23;20020;-75
2021/12/14 07:41:49;;;;;;;28.70;14.60;;;8.10;99.90;;;;;;6242581;23;20008;-76
2021/12/14 07:44:33;;;;;;;30.13;14.57;;;8.10;99.90;;;;;;6242319;23;20027;-77
2021/12/14 07:47:11;;;;;;;26.45;14.00;;;8.10;99.90;;;;;;6217525;23;20020;-77
2021/12/14 07:49:54;;;;;;;30.10;15.00;;;8.00;99.90;;;;;;6215346;23;20050;-76
2021/12/14 07:52:23;;;;;;;28.80;14.25;;;8.70;99.90;;;;;;6217126;23;20094;-76
2021/12/14 07:54:56;;;;;;;26.13;13.50;;;8.10;99.90;;;;;;6218111;23;20013;-76
2021/12/14 07:57:25;;;;;;;28.55;14.98;;;8.10;99.90;;;;;;6217634;23;20067;-76
2021/12/14 07:59:58;;;;;;;31.17;14.93;;;8.10;99.90;;;;;;6244171;23;20020;-77
2021/12/14 08:02:27;;;;;;;30.95;13.63;;;8.10;99.90;;;;;;6217258;23;20019;-77
2021/12/14 08:04:57;;;;;;;25.00;13.48;;;8.20;99.90;;;;;;6218205;23;20094;-76
2021/12/14 08:07:33;;;;;;;26.05;13.55;;;8.20;99.90;;;;;;6217054;23;20012;-76
2021/12/14 08:10:08;;;;;;;31.38;14.90;;;8.20;99.90;;;;;;6218562;23;20092;-76
2021/12/14 08:12:42;;;;;;;26.83;13.73;;;8.20;99.90;;;;;;6217365;23;20379;-76
2021/12/14 08:15:31;;;;;;;25.05;13.75;;;8.20;99.90;;;;;;6217841;23;20024;-76
2021/12/14 08:18:14;;;;;;;30.48;15.48;;;8.20;99.90;;;;;;6217976;23;20036;-76
2021/12/14 08:20:57;;;;;;;29.05;13.90;;;8.20;99.90;;;;;;6217605;23;20016;-76
2021/12/14 08:23:26;;;;;;;25.85;15.07;;;8.20;99.90;;;;;;6217672;23;20016;-76
2021/12/14 08:26:01;;;;;;;28.08;15.40;;;8.20;99.90;;;;;;6243874;23;20455;-77
2021/12/14 08:28:30;;;;;;;25.05;13.25;;;8.20;99.90;;;;;;6216963;23;20020;-77
2021/12/14 08:31:04;;;;;;;29.65;14.45;;;8.20;99.90;;;;;;6217594;23;20030;-76
2021/12/14 08:33:31;;;;;;;33.25;15.27;;;8.20;99.90;;;;;;6243847;23;20020;-76
2021/12/14 08:36:01;;;;;;;27.30;13.77;;;8.20;99.90;;;;;;6216794;23;20074;-76
2021/12/14 08:38:36;;;;;;;29.63;14.85;;;8.20;99.90;;;;;;6217547;23;20345;-75
2021/12/14 08:41:19;;;;;;;31.13;16.07;;;8.20;99.90;;;;;;6217052;23;20054;-75
2021/12/14 08:43:54;;;;;;;32.85;15.25;;;8.30;99.90;;;;;;6216916;23;20062;-75
2021/12/14 08:46:28;;;;;;;31.30;14.75;;;8.30;99.90;;;;;;6244233;23;20440;-75
2021/12/14 08:49:01;;;;;;;31.13;15.50;;;8.30;99.90;;;;;;6216212;23;20379;-75
2021/12/14 08:51:44;;;;;;;28.73;15.05;;;8.30;99.90;;;;;;6217563;23;20345;-76
2021/12/14 08:54:21;;;;;;;26.17;14.48;;;8.30;99.90;;;;;;6244483;23;20024;-76
2021/12/14 08:57:10;;;;;;;31.27;14.45;;;8.30;99.90;;;;;;6216600;23;20310;-76
2021/12/14 08:59:38;;;;;;;25.88;14.10;;;8.30;99.90;;;;;;6242794;23;20089;-76
2021/12/14 09:02:08;;;;;;;23.30;13.40;;;8.30;99.90;;;;;;6243582;23;20370;-76
2021/12/14 09:04:42;;;;;;;28.58;13.98;;;8.30;99.90;;;;;;6217602;23;20024;-76
2021/12/14 09:07:12;;;;;;;26.08;13.95;;;8.40;99.90;;;;;;6244413;23;20020;-76
2021/12/14 09:09:42;;;;;;;30.20;15.05;;;8.40;99.90;;;;;;6216548;23;20087;-76
2021/12/14 09:12:14;;;;;;;25.13;13.68;;;8.40;99.90;;;;;;6217294;23;20399;-76
2021/12/14 09:14:41;;;;;;;26.33;14.07;;;8.40;99.90;;;;;;6217772;23;20403;-76
2021/12/14 09:17:09;;;;;;;28.98;13.70;;;8.50;99.90;;;;;;6216993;23;20016;-76
2021/12/14 09:19:45;;;;;;;25.98;14.35;;;8.50;99.90;;;;;;6216993;23;20019;-76
2021/12/14 09:22:19;;;;;;;26.92;13.82;;;8.50;99.90;;;;;;6216955;23;20451;-76
2021/12/14 09:24:45;;;;;;;25.27;13.75;;;8.50;99.90;;;;;;6216791;23;20329;-76
2021/12/14 09:27:13;;;;;;;;;;;8.50;99.90;;;;;;6217588;23;20023;-76
2021/12/14 09:29:42;;;;;;;22.90;12.43;;;8.60;99.90;;;;;;6216916;23;19915;-76
2021/12/14 09:32:11;;;;;;;27.00;13.75;;;9.20;99.90;;;;;;6215066;23;20023;-76
2021/12/14 09:34:41;;;;;;;21.42;12.48;;;8.90;99.90;;;;;;6241703;23;20066;-76
2021/12/14 09:37:10;;;;;;;23.65;12.68;;;8.60;99.90;;;;;;6216906;23;20403;-77
2021/12/14 09:39:40;;;;;;;22.20;12.00;;;8.60;99.90;;;;;;6244618;23;20070;-76
2021/12/14 09:42:11;;;;;;;22.23;11.50;;;8.60;99.90;;;;;;6213846;23;20095;-77
2021/12/14 09:44:37;;;;;;;20.85;11.48;;;8.60;99.90;;;;;;6214147;23;20016;-77
2021/12/14 09:47:09;;;;;;;;;;;8.60;99.90;;;;;;6217768;23;20027;-77
2021/12/14 09:49:36;;;;;;;19.08;11.18;;;8.60;99.90;;;;;;6243977;23;19915;-77
2021/12/14 09:52:08;;;;;;;22.20;12.52;;;8.60;99.90;;;;;;6215326;23;20019;-77
2021/12/14 09:54:35;;;;;;;21.42;11.73;;;8.60;99.90;;;;;;6242037;23;20321;-77
2021/12/14 09:57:07;;;;;;;19.58;10.82;;;8.70;99.90;;;;;;6216853;23;20036;-77
2021/12/14 09:59:34;;;;;;;19.17;10.52;;;8.70;99.90;;;;;;6243157;23;20026;-77
2021/12/14 10:02:31;;;;;;;19.70;11.25;;;8.70;99.90;;;;;;6218001;23;20016;-77
2021/12/14 10:04:59;;;;;;;;;;;8.70;99.90;;;;;;6194615;23;20387;-77
2021/12/14 10:07:37;;;;;;;19.40;10.70;;;8.70;99.90;;;;;;6217964;23;19911;-75
2021/12/14 10:10:14;;;;;;;19.80;10.77;;;9.80;99.90;;;;;;6219520;23;20453;-77
2021/12/14 10:12:49;;;;;;;20.13;10.90;;;8.70;99.90;;;;;;6218528;23;20012;-77
2021/12/14 10:15:30;;;;;;;21.58;11.50;;;8.70;99.90;;;;;;6218717;23;20016;-77
2021/12/14 10:18:05;;;;;;;17.10;9.88;;;8.70;99.90;;;;;;6220193;23;20016;-80
2021/12/14 10:20:42;;;;;;;22.30;11.50;;;8.70;99.90;;;;;;6218521;23;20131;-80
2021/12/14 10:23:08;;;;;;;18.52;11.07;;;8.70;99.90;;;;;;6219332;23;20016;-76
2021/12/14 10:25:34;;;;;;;20.90;12.23;;;8.70;99.90;;;;;;6245441;23;20359;-75
2021/12/14 10:28:00;;;;;;;17.63;10.30;;;8.70;99.90;;;;;;6218569;23;20088;-75
2021/12/14 10:30:31;;;;;;;;;;;8.80;99.90;;;;;;6218808;23;20055;-75
2021/12/14 10:32:59;;;;;;;20.08;10.45;;;8.80;99.90;;;;;;6218539;23;20308;-74
2021/12/14 10:35:33;;;;;;;16.95;9.82;;;8.80;99.90;;;;;;6217723;23;20078;-74
2021/12/14 10:38:13;;;;;;;16.55;9.38;;;8.80;99.90;;;;;;6218719;23;20066;-75
2021/12/14 10:43:26;;;;;;;15.25;7.88;;;8.90;99.90;;;;;;6218614;23;20020;-75
2021/12/14 10:45:57;;;;;;;;;;;8.90;99.90;;;;;;6217763;23;20070;-75
2021/12/14 10:48:27;;;;;;;12.90;7.30;;;8.90;99.90;;;;;;6217126;23;19976;-75
2021/12/14 10:50:55;;;;;;;14.13;7.43;;;9.00;99.90;;;;;;6218187;23;20027;-75
2021/12/14 10:53:21;;;;;;;13.55;6.82;;;9.00;99.90;;;;;;6218102;23;20074;-75
2021/12/14 10:55:54;;;;;;;10.07;5.93;;;9.10;99.90;;;;;;6217885;23;20061;-75
2021/12/14 10:58:25;;;;;;;10.25;5.95;;;9.00;99.90;;;;;;6218160;23;20071;-75
2021/12/14 11:00:59;;;;;;;11.32;6.60;;;9.00;99.90;;;;;;6218422;23;20020;-75
2021/12/14 11:07:00;;;;;;;11.13;6.35;;;8.80;99.90;;;;;;6208681;23;20020;-75
2021/12/14 11:10:33;;;;;;;10.25;5.85;;;9.10;99.90;;;;;;6183903;23;20107;-75
2021/12/14 11:13:12;;;;;;;9.18;5.32;;;9.10;99.90;;;;;;6186661;23;20021;-75
2021/12/14 11:15:44;;;;;;;8.15;4.70;;;9.00;99.90;;;;;;6184676;23;20457;-75
2021/12/14 11:21:33;;;;;;;11.68;6.88;;;9.20;99.90;;;;;;6187639;23;20016;-75
2021/12/14 11:23:59;;;;;;;12.63;8.48;;;9.50;99.90;;;;;;6187718;23;20019;-75
2021/12/14 11:26:35;;;;;;;9.27;5.43;;;9.20;99.90;;;;;;6187524;23;20501;-75
2021/12/14 11:32:31;;;;;;;9.77;7.20;;;9.20;99.90;;;;;;6165461;23;20017;-79
2021/12/14 11:34:57;;;;;;;;;;;9.50;99.90;;;;;;6188877;23;20464;-80
2021/12/14 11:37:44;;;;;;;7.18;4.13;;;9.20;99.90;;;;;;6187896;23;19920;-78
2021/12/14 11:40:50;;;;;;;7.18;4.32;;;7.90;99.90;;;;;;6162135;23;20104;-79
2021/12/14 11:43:20;;;;;;;6.97;3.97;;;9.30;99.90;;;;;;6187515;23;20021;-77
2021/12/14 11:46:06;;;;;;;8.55;4.03;;;9.20;99.90;;;;;;6175780;23;20017;-76
2021/12/14 11:48:36;;;;;;;7.68;4.43;;;9.30;99.90;;;;;;6214580;23;20488;-79
2021/12/14 11:51:08;;;;;;;8.30;4.50;;;9.40;99.90;;;;;;6187568;23;20352;-80
2021/12/14 11:53:34;;;;;;;9.65;5.03;;;9.40;99.90;;;;;;6187646;23;20017;-78
2021/12/14 11:56:12;;;;;;;10.90;4.90;;;10.40;99.90;;;;;;6188430;23;20020;-78
2021/12/14 11:58:45;;;;;;;10.48;5.55;;;9.40;99.90;;;;;;6187480;23;20013;-76
2021/12/14 12:13:37;;;;;;;17.25;7.63;;;9.50;99.90;;;;;;6242745;23;20011;-76
2021/12/14 12:16:30;;;;;;;13.23;6.28;;;9.50;99.90;;;;;;6217366;23;20347;-75
2021/12/14 13:25:58;;;;;;;14.95;5.90;;;9.60;99.90;;;;;;6247048;22;20475;-75
2021/12/14 13:28:37;;;;;;;18.33;5.72;;;9.60;99.90;;;;;;6216723;23;20074;-74
2021/12/14 13:31:03;;;;;;;13.65;5.43;;;9.60;99.90;;;;;;6216493;23;20012;-75
2021/12/14 13:33:30;;;;;;;;;;;9.60;99.90;;;;;;6217701;23;20016;-75
2021/12/14 13:35:55;;;;;;;11.50;4.75;;;10.30;99.90;;;;;;6217881;23;20387;-75
2021/12/14 13:38:21;;;;;;;;;;;9.60;99.90;;;;;;6245418;23;20051;-75
2021/12/14 13:40:48;;;;;;;9.77;4.10;;;9.60;99.90;;;;;;6219994;23;19916;-74
2021/12/14 13:43:20;;;;;;;6.40;3.53;;;9.60;99.90;;;;;;6218169;23;20016;-76
2021/12/14 13:46:00;;;;;;;9.32;4.45;;;9.60;99.90;;;;;;6218247;23;20051;-76
2021/12/14 13:48:41;;;;;;;11.85;4.70;;;9.60;99.90;;;;;;6218135;23;20012;-76
2021/12/14 13:51:16;;;;;;;9.43;3.90;;;9.60;99.90;;;;;;6217932;23;20024;-74
2021/12/14 13:53:43;;;;;;;7.20;3.92;;;9.60;99.90;;;;;;6218563;23;20020;-75
2021/12/14 13:56:25;;;;;;;14.32;10.05;;;9.60;99.90;;;;;;6243853;23;20016;-75
2021/12/14 13:58:51;;;;;;;9.68;4.70;;;9.60;99.90;;;;;;6215736;23;20349;-75
2021/12/14 14:01:23;;;;;;;8.85;4.90;;;9.50;99.90;;;;;;6218015;23;20054;-76
2021/12/14 14:03:54;;;;;;;12.32;5.70;;;9.50;99.90;;;;;;6216706;23;20376;-75
2021/12/14 14:06:22;;;;;;;12.50;5.90;;;9.50;99.90;;;;;;6215393;23;20020;-77
2021/12/14 14:08:55;;;;;;;10.60;5.18;;;9.50;99.90;;;;;;6218405;23;20023;-75
2021/12/14 14:11:28;;;;;;;10.52;4.63;;;9.40;99.90;;;;;;6215811;23;20019;-77
2021/12/14 14:13:58;;;;;;;12.63;5.82;;;9.50;99.90;;;;;;6216779;23;20104;-74
2021/12/14 14:16:42;;;;;;;18.73;6.75;;;9.50;99.90;;;;;;6242768;23;20108;-74
2021/12/14 14:19:14;;;;;;;16.33;6.47;;;9.50;99.90;;;;;;6216133;23;20444;-79
2021/12/14 14:21:47;;;;;;;17.05;5.95;;;9.50;99.90;;;;;;6218561;23;20058;-79
2021/12/14 14:24:30;;;;;;;20.63;6.03;;;9.50;99.90;;;;;;6219206;23;20020;-86
2021/12/14 14:26:57;;;;;;;16.77;6.80;;;9.50;99.90;;;;;;6215542;23;20020;-79
2021/12/14 14:29:25;;;;;;;14.88;5.97;;;9.50;99.90;;;;;;6217521;23;20020;-76
2021/12/14 14:32:11;;;;;;;11.73;5.50;;;9.50;99.90;;;;;;6216702;23;20027;-78
2021/12/14 14:34:48;;;;;;;18.25;5.97;;;9.40;99.90;;;;;;6218246;23;20058;-79
2021/12/14 14:37:24;;;;;;;14.43;6.10;;;9.90;99.90;;;;;;6218310;23;20471;-78
2021/12/14 14:40:02;;;;;;;12.60;6.25;;;9.40;99.90;;;;;;6247077;23;20027;-81
2021/12/14 14:42:35;;;;;;;13.55;5.60;;;9.40;99.90;;;;;;6218261;23;20739;-76
2021/12/14 14:45:12;;;;;;;13.52;6.38;;;9.40;99.90;;;;;;6217375;23;20024;-77
2021/12/14 14:47:40;;;;;;;12.52;5.28;;;9.40;99.90;;;;;;6218094;23;20459;-76
2021/12/14 14:50:32;;;;;;;16.67;5.78;;;9.40;99.90;;;;;;6219186;23;20020;-80
2021/12/14 14:53:11;;;;;;;13.65;5.75;;;9.40;99.90;;;;;;6245740;23;20008;-77
2021/12/14 14:55:58;;;;;;;300.70;159.70;;;9.40;99.90;;;;;;6244252;23;20094;-77
2021/12/14 14:58:37;;;;;;;34.95;15.88;;;9.40;99.90;;;;;;6216024;23;20091;-79
2021/12/14 15:01:10;;;;;;;57.25;28.02;;;9.40;99.90;;;;;;6244374;23;20016;-80
2021/12/14 15:03:46;;;;;;;100.38;55.75;;;9.40;99.90;;;;;;6243885;23;20091;-77
2021/12/14 15:06:26;;;;;;;17.50;7.70;;;9.40;99.90;;;;;;6217858;23;20349;-75
2021/12/14 15:08:57;;;;;;;16.95;5.78;;;9.40;99.90;;;;;;6245058;23;20118;-87
2021/12/14 15:11:51;;;;;;;13.52;6.28;;;9.40;99.90;;;;;;6220404;23;20012;-78
2021/12/14 15:14:35;;;;;;;14.98;6.95;;;9.30;99.90;;;;;;6218336;23;20019;-80
2021/12/14 15:17:20;;;;;;;11.68;6.85;;;9.40;99.90;;;;;;6244041;23;20020;-79
2021/12/14 15:19:51;;;;;;;13.75;6.97;;;9.40;99.90;;;;;;6217193;23;20038;-76
2021/12/14 15:22:27;;;;;;;15.20;6.10;;;9.40;99.90;;;;;;6217372;23;20016;-78
2021/12/14 15:24:54;;;;;;;12.07;5.95;;;9.30;99.90;;;;;;6244206;23;20329;-82
2021/12/14 15:27:33;;;;;;;15.07;8.10;;;9.30;99.90;;;;;;6198078;23;20020;-79
2021/12/14 15:30:02;;;;;;;27.45;16.30;;;8.80;99.90;;;;;;6187975;23;20023;-78